createdAt,value
2023-05-08T00:02:49.652Z,101249.19
2023-05-08T00:07:52.295Z,101251.75
2023-05-08T00:12:52.982Z,101255.97
2023-05-08T00:17:53.777Z,101254.16
2023-05-08T00:22:56.741Z,101246.31
2023-05-08T00:27:57.396Z,101245.34
2023-05-08T00:32:58.111Z,101241.03
2023-05-08T00:38:00.218Z,101237.50
2023-05-08T00:43:00.891Z,101239.97
2023-05-08T00:48:02.198Z,101239.88
2023-05-08T00:53:06.355Z,101241.47
2023-05-08T00:58:08.091Z,101242.38
2023-05-08T01:03:10.193Z,101250.00
2023-05-08T01:08:12.262Z,101245.63
2023-05-08T01:13:21.400Z,101242.94
2023-05-08T01:18:29.648Z,101242.78
2023-05-08T01:23:59.475Z,101248.81
2023-05-08T01:29:30.758Z,101249.56
2023-05-08T01:34:35.197Z,101252.03
2023-05-08T01:39:44.444Z,101260.53
2023-05-08T01:44:50.194Z,101261.34
2023-05-08T01:49:59.880Z,101260.34
2023-05-08T01:55:05.160Z,101261.13
2023-05-08T02:00:07.957Z,101272.34
2023-05-08T02:05:15.117Z,101267.06
2023-05-08T02:10:17.478Z,101262.75
2023-05-08T02:15:22.108Z,101260.22
2023-05-08T02:20:24.180Z,101261.97
2023-05-08T02:25:26.668Z,101268.00
2023-05-08T02:30:28.284Z,101267.97
2023-05-08T02:35:32.133Z,101273.91
2023-05-08T02:40:34.001Z,101270.41
2023-05-08T02:45:42.206Z,101273.69
2023-05-08T02:50:49.523Z,101268.34
2023-05-08T02:55:55.624Z,101278.47
2023-05-08T03:01:01.575Z,101274.91
2023-05-08T03:06:10.176Z,101281.63
2023-05-08T03:11:16.968Z,101284.09
2023-05-08T03:16:21.943Z,101288.31
2023-05-08T03:21:29.157Z,101285.75
2023-05-08T03:26:30.274Z,101283.94
2023-05-08T03:31:34.095Z,101271.88
2023-05-08T03:36:37.201Z,101280.44
2023-05-08T03:41:38.065Z,101283.88
2023-05-08T03:46:39.862Z,101283.94
2023-05-08T03:51:43.221Z,101296.81
2023-05-08T03:56:45.955Z,101290.88
2023-05-08T04:01:53.103Z,101294.41
2023-05-08T04:07:05.115Z,101295.28
2023-05-08T04:12:19.117Z,101301.88
2023-05-08T04:17:30.107Z,101304.91
2023-05-08T04:22:34.005Z,101300.59
2023-05-08T04:27:36.420Z,101313.66
2023-05-08T04:32:40.259Z,101316.56
2023-05-08T04:37:43.874Z,101317.56
2023-05-08T04:42:47.416Z,101327.09
2023-05-08T04:47:50.382Z,101323.00
2023-05-08T04:52:52.577Z,101327.47
2023-05-08T04:57:53.703Z,101338.91
2023-05-08T05:02:54.686Z,101340.75
2023-05-08T05:07:56.871Z,101338.41
2023-05-08T05:12:58.777Z,101332.56
2023-05-08T05:17:59.705Z,101333.56
2023-05-08T05:23:01.839Z,101332.94
2023-05-08T05:28:03.092Z,101331.34
2023-05-08T05:33:03.975Z,101337.59
2023-05-08T05:38:06.956Z,101336.81
2023-05-08T05:43:07.874Z,101335.22
2023-05-08T05:48:08.896Z,101341.28
2023-05-08T05:53:11.342Z,101340.75
2023-05-08T05:58:12.081Z,101344.19
2023-05-08T06:03:12.958Z,101343.38
2023-05-08T06:08:16.514Z,101347.81
2023-05-08T06:13:17.236Z,101344.44
2023-05-08T06:18:18.163Z,101344.47
2023-05-08T06:23:20.570Z,101335.00
2023-05-08T06:28:22.543Z,101332.47
2023-05-08T06:33:25.456Z,101342.94
2023-05-08T06:38:28.696Z,101333.41
2023-05-08T06:43:30.585Z,101342.97
2023-05-08T06:48:31.209Z,101341.25
2023-05-08T06:53:33.205Z,101340.41
2023-05-08T06:58:33.928Z,101336.03
2023-05-08T07:03:34.979Z,101330.81
2023-05-08T07:08:37.432Z,101327.31
2023-05-08T07:13:38.252Z,101329.06
2023-05-08T07:18:41.541Z,101328.19
2023-05-08T07:23:43.519Z,101326.34
2023-05-08T07:28:44.171Z,101325.41
2023-05-08T07:33:44.952Z,101327.88
2023-05-08T07:38:47.149Z,101324.28
2023-05-08T07:43:47.807Z,101334.41
2023-05-08T07:48:48.942Z,101333.34
2023-05-08T07:53:51.212Z,101323.50
2023-05-08T07:58:51.997Z,101310.31
2023-05-08T08:03:54.340Z,101312.88
2023-05-08T08:08:56.443Z,101316.50
2023-05-08T08:13:57.282Z,101319.78
2023-05-08T08:18:57.971Z,101303.06
2023-05-08T08:24:00.155Z,101306.34
2023-05-08T08:29:00.793Z,101304.44
2023-05-08T08:34:01.642Z,101303.47
2023-05-08T08:39:03.849Z,101307.66
2023-05-08T08:44:04.753Z,101293.41
2023-05-08T08:49:08.731Z,101298.25
2023-05-08T08:54:13.320Z,101300.63
2023-05-08T08:59:14.525Z,101287.03
2023-05-08T09:04:15.350Z,101300.06
2023-05-08T09:09:17.508Z,101287.56
2023-05-08T09:14:18.207Z,101285.75
2023-05-08T09:19:23.389Z,101280.00
2023-05-08T09:24:30.151Z,101278.66
2023-05-08T09:29:31.826Z,101277.66
2023-05-08T09:34:33.408Z,101273.66
2023-05-08T09:39:35.713Z,101268.31
2023-05-08T09:44:47.169Z,101264.25
2023-05-08T09:50:01.198Z,101253.34
2023-05-08T09:55:04.601Z,101259.78
2023-05-08T10:00:09.035Z,101243.50
2023-05-08T10:05:24.980Z,101242.16
2023-05-08T10:10:28.499Z,101241.91
2023-05-08T10:15:31.645Z,101244.81
2023-05-08T10:20:34.131Z,101237.31
2023-05-08T10:25:38.037Z,101242.16
2023-05-08T10:30:44.158Z,101232.00
2023-05-08T10:35:49.190Z,101223.09
2023-05-08T10:40:53.439Z,101219.28
2023-05-08T10:45:55.745Z,101217.09
2023-05-08T10:51:05.011Z,101210.22
2023-05-08T10:56:07.505Z,101203.38
2023-05-08T11:01:26.721Z,101204.69
2023-05-08T11:06:45.871Z,101193.16
2023-05-08T11:11:55.910Z,101188.84
2023-05-08T11:17:10.929Z,101188.88
2023-05-08T11:22:23.617Z,101184.69
2023-05-08T11:27:59.555Z,101176.25
2023-05-08T11:33:14.316Z,101180.06
2023-05-08T11:38:20.029Z,101177.97
2023-05-08T11:43:27.018Z,101172.84
2023-05-08T11:48:27.781Z,101163.19
2023-05-08T11:53:29.237Z,101163.38
2023-05-08T11:58:31.958Z,101154.56
2023-05-08T12:03:32.790Z,101143.00
2023-05-08T12:08:33.959Z,101149.41
2023-05-08T12:13:36.044Z,101154.28
2023-05-08T12:18:38.508Z,101146.81
2023-05-08T12:23:40.494Z,101149.47
2023-05-08T12:28:45.681Z,101137.59
2023-05-08T12:33:46.663Z,101130.16
2023-05-08T12:38:47.392Z,101131.94
2023-05-08T12:43:49.784Z,101120.16
2023-05-08T12:48:50.437Z,101117.28
2023-05-08T12:53:51.624Z,101115.50
2023-05-08T12:58:53.589Z,101117.06
2023-05-08T13:04:01.499Z,101117.13
2023-05-08T13:09:03.161Z,101112.56
2023-05-08T13:14:05.176Z,101108.19
2023-05-08T13:19:05.800Z,101116.69
2023-05-08T13:24:07.076Z,101109.34
2023-05-08T13:29:09.269Z,101096.38
2023-05-08T13:34:10.032Z,101083.66
2023-05-08T13:39:11.227Z,101088.03
2023-05-08T13:44:13.234Z,101078.50
2023-05-08T13:49:13.873Z,101075.66
2023-05-08T13:54:14.541Z,101070.47
2023-05-08T13:59:16.626Z,101069.44
2023-05-08T14:04:17.384Z,101067.88
2023-05-08T14:09:18.147Z,101076.66
2023-05-08T14:14:20.234Z,101074.22
2023-05-08T14:19:20.940Z,101064.97
2023-05-08T14:24:21.655Z,101075.22
2023-05-08T14:29:23.701Z,101082.88
2023-05-08T14:34:24.462Z,101061.66
2023-05-08T14:39:25.110Z,101055.63
2023-05-08T14:44:27.159Z,101050.06
2023-05-08T14:49:36.664Z,101055.06
2023-05-08T14:54:38.797Z,101047.78
2023-05-08T14:59:49.036Z,101041.13
2023-05-08T15:04:55.240Z,101044.50
2023-05-08T15:09:55.917Z,101042.91
2023-05-08T15:14:57.934Z,101040.63
2023-05-08T15:19:58.611Z,101050.72
2023-05-08T15:25:02.470Z,101041.03
2023-05-08T15:30:05.217Z,101035.50
2023-05-08T15:35:06.864Z,101036.22
2023-05-08T15:40:09.963Z,101039.41
2023-05-08T15:45:12.684Z,101033.91
2023-05-08T15:50:14.528Z,101034.47
2023-05-08T15:55:15.615Z,101037.84
2023-05-08T16:00:18.793Z,101033.44
2023-05-08T16:05:20.099Z,101028.25
2023-05-08T16:10:20.984Z,101024.88
2023-05-08T16:15:23.102Z,101014.34
2023-05-08T16:20:24.049Z,101010.53
2023-05-08T16:25:25.333Z,101008.56
2023-05-08T16:30:27.385Z,101015.13
2023-05-08T16:35:29.492Z,101013.00
2023-05-08T16:40:30.356Z,101015.63
2023-05-08T16:45:34.419Z,101014.31
2023-05-08T16:50:35.383Z,101019.63
2023-05-08T16:55:36.013Z,101017.22
2023-05-08T17:00:38.099Z,101019.28
2023-05-08T17:05:38.903Z,101013.94
2023-05-08T17:10:41.323Z,101014.75
2023-05-08T17:15:43.304Z,101032.28
2023-05-08T17:20:43.930Z,101023.94
2023-05-08T17:25:44.632Z,101029.59
2023-05-08T17:30:48.112Z,101033.91
2023-05-08T17:35:48.920Z,101039.88
2023-05-08T17:40:49.683Z,101044.09
2023-05-08T17:45:51.719Z,101056.28
2023-05-08T17:50:52.393Z,101066.72
2023-05-08T17:55:54.113Z,101069.00
2023-05-08T18:00:57.038Z,101070.25
2023-05-08T18:05:57.780Z,101074.66
2023-05-08T18:10:58.429Z,101086.81
2023-05-08T18:16:00.427Z,101093.44
2023-05-08T18:21:01.209Z,101095.72
2023-05-08T18:26:02.115Z,101112.78
2023-05-08T18:31:04.184Z,101113.41
2023-05-08T18:36:10.563Z,101117.13
2023-05-08T18:41:11.716Z,101123.56
2023-05-08T18:46:14.702Z,101127.53
2023-05-08T18:51:15.488Z,101127.09
2023-05-08T18:56:16.205Z,101129.00
2023-05-08T19:01:20.146Z,101142.53
2023-05-08T19:06:21.034Z,101146.94
2023-05-08T19:11:21.890Z,101157.72
2023-05-08T19:16:24.413Z,101156.84
2023-05-08T19:21:25.098Z,101157.09
2023-05-08T19:26:26.413Z,101164.19
2023-05-08T19:31:28.446Z,101176.56
2023-05-08T19:36:29.130Z,101169.66
2023-05-08T19:41:29.826Z,101158.59
2023-05-08T19:46:31.862Z,101154.16
2023-05-08T19:51:32.744Z,101167.56
2023-05-08T19:56:33.398Z,101172.84
2023-05-08T20:01:35.511Z,101174.59
2023-05-08T20:06:38.235Z,101172.16
2023-05-08T20:11:38.954Z,101174.00
2023-05-08T20:16:41.837Z,101185.41
2023-05-08T20:21:42.598Z,101181.94
2023-05-08T20:26:43.322Z,101182.97
2023-05-08T20:31:45.335Z,101195.31
2023-05-08T20:36:46.190Z,101189.31
2023-05-08T20:41:46.804Z,101188.47
2023-05-08T20:46:48.810Z,101196.41
2023-05-08T20:51:49.454Z,101189.50
2023-05-08T20:56:50.166Z,101185.28
2023-05-08T21:01:52.438Z,101194.91
2023-05-08T21:06:53.084Z,101190.72
2023-05-08T21:11:53.717Z,101188.13
2023-05-08T21:16:55.932Z,101181.25
2023-05-08T21:21:56.689Z,101185.59
2023-05-08T21:26:59.503Z,101186.53
2023-05-08T21:32:01.555Z,101175.19
2023-05-08T21:37:02.340Z,101174.34
2023-05-08T21:42:03.200Z,101167.41
2023-05-08T21:47:05.443Z,101162.22
2023-05-08T21:52:06.087Z,101167.50
2023-05-08T21:57:07.540Z,101170.09
2023-05-08T22:02:09.803Z,101168.47
2023-05-08T22:07:10.698Z,101174.50
2023-05-08T22:12:11.361Z,101182.34
2023-05-08T22:17:13.356Z,101179.75
2023-05-08T22:22:14.072Z,101166.81
2023-05-08T22:27:14.724Z,101168.56
2023-05-08T22:32:18.049Z,101166.84
2023-05-08T22:37:18.689Z,101154.72
2023-05-08T22:42:19.665Z,101162.53
2023-05-08T22:47:21.747Z,101161.69
2023-05-08T22:52:22.503Z,101149.53
2023-05-08T22:57:23.156Z,101155.63
2023-05-08T23:02:25.189Z,101150.44
2023-05-08T23:07:26.074Z,101149.56
2023-05-08T23:12:26.738Z,101153.06
2023-05-08T23:17:28.737Z,101154.78
2023-05-08T23:22:29.611Z,101144.41
2023-05-08T23:27:30.430Z,101140.94
2023-05-08T23:32:32.546Z,101151.34
2023-05-08T23:37:33.231Z,101152.22
2023-05-08T23:42:33.918Z,101145.28
2023-05-08T23:47:36.371Z,101143.53
2023-05-08T23:52:37.078Z,101141.81
2023-05-08T23:57:38.033Z,101139.22
